Terminal Aerodrome Forecast
Issued by NWS Melbourne, FL

Home | Current Version | Previous Version | Text Only | Print | Product List | Glossary On
Versions: 1 2 3 4 5 6 7 8 9 10 11 12 13 14 15
711
FTUS42 KMLB 210520
TAFMLB
TAF
KMLB 210520Z 2106/2206 09010KT P6SM BKN045
     FM211300 09009KT P6SM VCSH BKN050 OVC080
     FM211600 10011KT 5SM -RA BKN035 OVC050
      TEMPO 2117/2121 3SM RA BR BKN020 OVC040
     FM212200 11007KT 5SM -RA BR SCT030 OVC050
     FM220100 VRB03KT P6SM SCT040 BKN080=

USA.gov is the U.S. government's official web portal to all federal, state and local government web resources and services.